createdAt,value
2023-03-25T00:01:16.599Z,16.84
2023-03-25T00:03:46.767Z,16.53
2023-03-25T00:06:14.314Z,16.69
2023-03-25T00:08:41.723Z,16.69
2023-03-25T00:11:09.003Z,16.89
2023-03-25T00:13:36.595Z,16.81
2023-03-25T00:16:04.793Z,16.80
2023-03-25T00:18:35.641Z,16.79
2023-03-25T00:21:04.494Z,16.85
2023-03-25T00:23:32.408Z,16.53
2023-03-25T00:26:03.394Z,16.52
2023-03-25T00:28:32.789Z,16.85
2023-03-25T00:31:02.152Z,15.70
2023-03-25T00:33:29.517Z,16.17
2023-03-25T00:35:59.620Z,16.41
2023-03-25T00:38:34.455Z,16.41
2023-03-25T00:41:26.126Z,16.31
2023-03-25T00:43:55.815Z,16.44
2023-03-25T00:46:28.018Z,16.35
2023-03-25T00:48:55.481Z,16.45
2023-03-25T00:51:23.589Z,16.50
2023-03-25T00:54:01.520Z,16.58
2023-03-25T00:56:29.717Z,16.44
2023-03-25T00:58:57.543Z,16.31
2023-03-25T01:01:29.824Z,15.99
2023-03-25T01:03:58.628Z,15.52
2023-03-25T01:06:29.627Z,15.26
2023-03-25T01:08:58.007Z,14.94
2023-03-25T01:11:31.348Z,14.72
2023-03-25T01:14:00.045Z,14.53
2023-03-25T01:16:28.280Z,14.57
2023-03-25T01:18:56.289Z,14.47
2023-03-25T01:21:23.986Z,14.26
2023-03-25T01:23:50.985Z,14.35
2023-03-25T01:26:18.058Z,14.68
2023-03-25T01:28:45.900Z,14.71
2023-03-25T01:31:15.238Z,14.96
2023-03-25T01:33:42.609Z,15.06
2023-03-25T01:36:13.176Z,15.03
2023-03-25T01:38:41.904Z,15.12
2023-03-25T01:41:10.296Z,15.08
2023-03-25T01:43:37.491Z,14.86
2023-03-25T01:46:04.690Z,15.22
2023-03-25T01:48:40.790Z,15.44
2023-03-25T01:51:11.656Z,15.22
2023-03-25T01:53:40.588Z,15.27
2023-03-25T01:56:10.688Z,15.56
2023-03-25T01:58:38.039Z,15.71
2023-03-25T02:01:05.543Z,15.62
2023-03-25T02:03:37.468Z,15.73
2023-03-25T02:06:14.730Z,15.92
2023-03-25T02:08:42.226Z,15.85
2023-03-25T02:11:11.250Z,15.90
2023-03-25T02:13:41.485Z,15.90
2023-03-25T02:16:45.817Z,16.09
2023-03-25T02:19:18.466Z,15.92
2023-03-25T02:22:25.933Z,16.18
2023-03-25T02:25:14.200Z,16.15
2023-03-25T02:28:02.269Z,16.24
2023-03-25T02:30:57.223Z,15.97
2023-03-25T02:33:49.084Z,16.13
2023-03-25T02:36:43.111Z,16.22
2023-03-25T02:39:28.306Z,16.28
2023-03-25T02:42:06.355Z,16.42
2023-03-25T02:44:50.780Z,16.45
2023-03-25T02:47:20.487Z,16.44
2023-03-25T02:49:54.919Z,16.41
2023-03-25T02:52:29.445Z,16.09
2023-03-25T02:55:04.499Z,16.10
2023-03-25T02:57:35.397Z,16.10
2023-03-25T03:00:11.092Z,16.18
2023-03-25T03:02:39.370Z,16.13
2023-03-25T03:05:23.363Z,16.19
2023-03-25T03:08:10.438Z,16.27
2023-03-25T03:11:07.593Z,16.09
2023-03-25T03:13:49.431Z,16.24
2023-03-25T03:16:19.871Z,16.12
2023-03-25T03:18:54.016Z,16.33
2023-03-25T03:21:30.612Z,16.28
2023-03-25T03:24:12.653Z,16.34
2023-03-25T03:26:39.573Z,16.40
2023-03-25T03:29:14.418Z,16.21
2023-03-25T03:31:48.451Z,16.09
2023-03-25T03:34:48.691Z,15.70
2023-03-25T03:37:28.692Z,15.82
2023-03-25T03:39:58.116Z,15.56
2023-03-25T03:42:49.169Z,15.04
2023-03-25T03:45:39.615Z,14.51
2023-03-25T03:48:13.128Z,13.63
2023-03-25T03:50:48.944Z,14.28
2023-03-25T03:53:23.826Z,14.75
2023-03-25T03:55:56.100Z,14.97
2023-03-25T03:58:30.161Z,14.98
2023-03-25T04:01:16.957Z,14.44
2023-03-25T04:03:52.439Z,14.62
2023-03-25T04:06:35.655Z,14.44
2023-03-25T04:09:18.747Z,14.79
2023-03-25T04:11:56.866Z,14.00
2023-03-25T04:14:24.033Z,13.94
2023-03-25T04:16:53.320Z,13.81
2023-03-25T04:19:20.330Z,13.51
2023-03-25T04:21:48.215Z,12.93
2023-03-25T04:24:17.045Z,13.17
2023-03-25T04:26:44.343Z,13.96
2023-03-25T04:29:11.312Z,14.24
2023-03-25T04:31:46.638Z,14.51
2023-03-25T04:34:15.092Z,14.73
2023-03-25T04:36:43.316Z,14.75
2023-03-25T04:39:12.922Z,14.82
2023-03-25T04:41:40.166Z,14.84
2023-03-25T04:44:08.143Z,15.10
2023-03-25T04:46:36.727Z,14.80
2023-03-25T04:49:06.499Z,15.12
2023-03-25T04:51:33.717Z,15.02
2023-03-25T04:54:01.154Z,14.95
2023-03-25T04:56:28.208Z,14.99
2023-03-25T04:58:55.357Z,15.14
2023-03-25T05:01:32.778Z,15.14
2023-03-25T05:04:07.744Z,14.69
2023-03-25T05:06:38.637Z,15.07
2023-03-25T05:09:07.259Z,14.66
2023-03-25T05:11:37.286Z,14.92
2023-03-25T05:14:04.308Z,14.92
2023-03-25T05:16:31.325Z,15.08
2023-03-25T05:18:58.695Z,15.04
2023-03-25T05:21:25.884Z,15.22
2023-03-25T05:23:52.876Z,15.32
2023-03-25T05:26:21.007Z,15.15
2023-03-25T05:28:51.681Z,15.33
2023-03-25T05:31:19.237Z,15.30
2023-03-25T05:33:46.501Z,15.46
2023-03-25T05:36:18.853Z,15.24
2023-03-25T05:38:45.795Z,15.40
2023-03-25T05:41:17.261Z,15.32
2023-03-25T05:43:53.378Z,15.25
2023-03-25T05:46:20.676Z,15.41
2023-03-25T05:48:47.666Z,15.25
2023-03-25T05:51:22.090Z,15.34
2023-03-25T05:53:53.677Z,15.48
2023-03-25T05:56:23.357Z,15.34
2023-03-25T05:58:51.320Z,15.22
2023-03-25T06:01:31.755Z,15.25
2023-03-25T06:04:05.586Z,15.21
2023-03-25T06:06:34.492Z,15.25
2023-03-25T06:09:02.544Z,15.17
2023-03-25T06:11:30.078Z,15.21
2023-03-25T06:13:57.532Z,15.07
2023-03-25T06:16:30.173Z,15.11
2023-03-25T06:19:00.402Z,14.98
2023-03-25T06:21:29.556Z,15.39
2023-03-25T06:23:58.948Z,15.63
2023-03-25T06:26:26.727Z,15.39
2023-03-25T06:28:54.925Z,15.60
2023-03-25T06:31:33.934Z,15.75
2023-03-25T06:34:01.760Z,15.87
2023-03-25T06:36:28.799Z,15.71
2023-03-25T06:38:55.858Z,16.05
2023-03-25T06:41:26.066Z,16.05
2023-03-25T06:43:53.539Z,15.86
2023-03-25T06:46:20.516Z,16.08
2023-03-25T06:48:47.634Z,15.89
2023-03-25T06:51:14.693Z,16.07
2023-03-25T06:53:41.690Z,16.23
2023-03-25T06:56:09.099Z,16.25
2023-03-25T06:58:36.126Z,16.20
2023-03-25T07:01:07.755Z,16.41
2023-03-25T07:03:36.938Z,16.46
2023-03-25T07:06:06.020Z,16.39
2023-03-25T07:08:33.376Z,16.36
2023-03-25T07:11:08.286Z,16.38
2023-03-25T07:13:35.688Z,16.41
2023-03-25T07:16:03.376Z,16.52
2023-03-25T07:18:30.460Z,16.56
2023-03-25T07:20:57.604Z,16.44
2023-03-25T07:23:24.642Z,16.52
2023-03-25T07:25:51.948Z,16.56
2023-03-25T07:28:19.373Z,16.69
2023-03-25T07:30:46.764Z,16.53
2023-03-25T07:33:13.734Z,16.79
2023-03-25T07:35:40.844Z,17.12
2023-03-25T07:38:08.093Z,17.44
2023-03-25T07:40:35.078Z,17.37
2023-03-25T07:43:01.989Z,17.61
2023-03-25T07:45:29.221Z,17.50
2023-03-25T07:47:56.365Z,17.85
2023-03-25T07:50:25.257Z,17.96
2023-03-25T07:52:53.087Z,17.98
2023-03-25T07:55:20.110Z,17.93
2023-03-25T07:57:47.278Z,17.99
2023-03-25T08:00:14.975Z,18.19
2023-03-25T08:02:42.311Z,18.17
2023-03-25T08:05:09.938Z,18.23
2023-03-25T08:07:36.868Z,18.38
2023-03-25T08:10:04.363Z,18.64
2023-03-25T08:12:31.370Z,18.56
2023-03-25T08:15:00.214Z,18.69
2023-03-25T08:17:27.362Z,18.68
2023-03-25T08:19:54.373Z,18.36
2023-03-25T08:22:21.311Z,18.63
2023-03-25T08:24:48.269Z,18.70
2023-03-25T08:27:16.674Z,18.47
2023-03-25T08:29:45.114Z,18.67
2023-03-25T08:32:12.018Z,18.79
2023-03-25T08:34:40.268Z,18.75
2023-03-25T08:37:10.317Z,18.70
2023-03-25T08:39:40.193Z,18.79
2023-03-25T08:42:09.123Z,18.91
2023-03-25T08:44:36.701Z,19.04
2023-03-25T08:47:04.274Z,18.71
2023-03-25T08:49:31.356Z,18.86
2023-03-25T08:52:00.458Z,18.70
2023-03-25T08:54:29.351Z,18.94
2023-03-25T08:56:56.546Z,19.07
2023-03-25T08:59:23.619Z,18.74
2023-03-25T09:01:50.886Z,19.12
2023-03-25T09:04:17.986Z,19.34
2023-03-25T09:06:47.176Z,19.30
2023-03-25T09:09:16.886Z,19.20
2023-03-25T09:11:44.699Z,19.62
2023-03-25T09:14:11.817Z,19.66
2023-03-25T09:16:38.898Z,19.73
2023-03-25T09:19:06.052Z,19.83
2023-03-25T09:21:33.043Z,20.09
2023-03-25T09:24:00.149Z,19.78
2023-03-25T09:26:27.361Z,20.14
2023-03-25T09:28:56.550Z,20.05
2023-03-25T09:31:24.374Z,20.07
2023-03-25T09:33:51.492Z,20.24
2023-03-25T09:36:18.504Z,20.03
2023-03-25T09:38:45.953Z,20.32
2023-03-25T09:41:38.951Z,20.08
2023-03-25T09:44:15.333Z,20.00
2023-03-25T09:46:44.274Z,19.79
2023-03-25T09:49:19.938Z,20.02
2023-03-25T09:51:49.944Z,20.27
2023-03-25T09:54:16.891Z,20.10
2023-03-25T09:56:44.949Z,20.16
2023-03-25T09:59:21.614Z,19.96
2023-03-25T10:02:04.622Z,19.85
2023-03-25T10:04:53.564Z,19.78
2023-03-25T10:07:55.097Z,19.67
2023-03-25T10:10:24.853Z,19.74
2023-03-25T10:12:56.322Z,19.77
2023-03-25T10:15:41.225Z,19.72
2023-03-25T10:18:28.044Z,19.69
2023-03-25T10:21:10.862Z,19.11
2023-03-25T10:23:43.279Z,18.97
2023-03-25T10:26:21.050Z,19.25
2023-03-25T10:29:05.357Z,18.42
2023-03-25T10:31:37.977Z,18.94
2023-03-25T10:34:10.892Z,19.00
2023-03-25T10:36:45.472Z,18.61
2023-03-25T10:39:19.272Z,18.93
2023-03-25T10:42:18.555Z,18.15
2023-03-25T10:44:47.296Z,18.87
2023-03-25T10:47:19.919Z,18.28
2023-03-25T10:49:48.736Z,18.74
2023-03-25T10:52:16.691Z,18.91
2023-03-25T10:54:48.289Z,18.91
2023-03-25T10:57:28.534Z,19.23
2023-03-25T11:00:01.625Z,19.31
2023-03-25T11:02:30.924Z,19.20
2023-03-25T11:05:03.391Z,19.80
2023-03-25T11:07:33.946Z,19.59
2023-03-25T11:10:26.371Z,20.05
2023-03-25T11:12:55.111Z,20.15
2023-03-25T11:15:26.060Z,20.14
2023-03-25T11:18:13.981Z,20.12
2023-03-25T11:20:48.503Z,20.38
2023-03-25T11:23:26.628Z,20.35
2023-03-25T11:25:55.888Z,20.59
2023-03-25T11:28:38.435Z,20.32
2023-03-25T11:31:11.684Z,20.72
2023-03-25T11:33:40.063Z,21.13
2023-03-25T11:36:20.824Z,21.22
2023-03-25T11:38:53.932Z,21.52
2023-03-25T11:41:20.976Z,21.26
2023-03-25T11:43:50.063Z,21.53
2023-03-25T11:46:21.364Z,21.68
2023-03-25T11:48:50.411Z,21.65
2023-03-25T11:51:24.214Z,21.41
2023-03-25T11:54:03.362Z,21.50
2023-03-25T11:56:39.339Z,21.65
2023-03-25T11:59:30.640Z,21.86
2023-03-25T12:02:03.394Z,21.42
2023-03-25T12:04:30.892Z,21.06
2023-03-25T12:07:02.028Z,21.20
2023-03-25T12:09:32.293Z,21.47
2023-03-25T12:12:08.720Z,21.27
2023-03-25T12:14:38.750Z,20.95
2023-03-25T12:17:24.398Z,21.04
2023-03-25T12:20:13.830Z,21.15
2023-03-25T12:23:03.741Z,21.13
2023-03-25T12:25:57.049Z,20.92
2023-03-25T12:28:41.892Z,20.78
2023-03-25T12:31:24.191Z,20.97
2023-03-25T12:34:03.611Z,21.00
2023-03-25T12:37:00.047Z,20.96
2023-03-25T12:39:46.945Z,21.01
2023-03-25T12:42:53.923Z,20.78
2023-03-25T12:45:22.584Z,20.89
2023-03-25T12:47:56.477Z,20.80
2023-03-25T12:50:44.200Z,20.79
2023-03-25T12:53:41.830Z,20.75
2023-03-25T12:56:14.476Z,20.59
2023-03-25T12:58:44.261Z,20.64
2023-03-25T13:01:20.507Z,20.36
2023-03-25T13:04:12.512Z,20.44
2023-03-25T13:07:05.758Z,20.56
2023-03-25T13:09:52.512Z,20.31
2023-03-25T13:12:54.262Z,20.10
2023-03-25T13:15:26.906Z,20.06
2023-03-25T13:18:04.210Z,20.33
2023-03-25T13:20:38.063Z,20.29
2023-03-25T13:23:08.039Z,20.20
2023-03-25T13:25:57.217Z,19.91
2023-03-25T13:28:50.618Z,20.06
2023-03-25T13:31:21.390Z,19.99
2023-03-25T13:34:00.939Z,20.04
2023-03-25T13:39:16.212Z,19.66
2023-03-25T13:41:48.155Z,20.18
2023-03-25T13:44:29.303Z,20.08
2023-03-25T13:47:06.946Z,19.88
2023-03-25T13:49:44.548Z,20.05
2023-03-25T13:52:14.854Z,20.25
2023-03-25T13:55:09.941Z,20.24
2023-03-25T13:58:01.550Z,20.46
2023-03-25T14:00:55.758Z,20.69
2023-03-25T14:03:38.241Z,20.61
2023-03-25T14:06:10.775Z,20.84
2023-03-25T14:09:05.810Z,21.01
2023-03-25T14:11:50.205Z,20.86
2023-03-25T14:14:23.110Z,20.35
2023-03-25T14:16:58.446Z,20.55
2023-03-25T14:19:37.663Z,20.37
2023-03-25T14:22:16.881Z,20.17
2023-03-25T14:24:45.570Z,19.68
2023-03-25T14:27:30.045Z,19.15
2023-03-25T14:30:20.680Z,19.07
2023-03-25T14:32:47.800Z,19.57
2023-03-25T14:35:36.919Z,19.66
2023-03-25T14:38:09.647Z,19.63
2023-03-25T14:40:50.726Z,19.80
2023-03-25T14:43:33.288Z,19.91
2023-03-25T14:46:23.855Z,19.75
2023-03-25T14:49:19.009Z,19.08
2023-03-25T14:51:51.899Z,19.14
2023-03-25T14:54:27.858Z,19.39
2023-03-25T14:57:08.328Z,19.46
2023-03-25T14:59:42.500Z,19.63
2023-03-25T15:02:23.048Z,19.64
2023-03-25T15:04:54.823Z,19.40
2023-03-25T15:07:39.348Z,19.40
2023-03-25T15:10:07.574Z,19.39
2023-03-25T15:12:39.021Z,19.20
2023-03-25T15:15:27.858Z,19.07
2023-03-25T15:17:55.064Z,19.38
2023-03-25T15:20:21.984Z,19.26
2023-03-25T15:23:34.797Z,19.20
2023-03-25T15:26:03.117Z,19.03
2023-03-25T15:28:45.505Z,18.55
2023-03-25T15:31:20.469Z,18.25
2023-03-25T15:34:02.636Z,18.37
2023-03-25T15:36:48.244Z,18.34
2023-03-25T15:39:41.040Z,17.63
2023-03-25T15:42:07.966Z,17.56
2023-03-25T15:44:34.874Z,17.99
2023-03-25T15:47:20.689Z,18.20
2023-03-25T15:50:09.620Z,17.99
2023-03-25T15:53:12.876Z,18.11
2023-03-25T15:55:46.126Z,18.44
2023-03-25T15:58:26.221Z,18.49
2023-03-25T16:00:59.755Z,18.36
2023-03-25T16:03:30.505Z,18.38
2023-03-25T16:06:01.893Z,18.53
2023-03-25T16:08:33.120Z,18.48
2023-03-25T16:11:23.223Z,18.40
2023-03-25T16:14:15.040Z,18.65
2023-03-25T16:16:53.390Z,18.50
2023-03-25T16:19:23.705Z,18.47
2023-03-25T16:21:53.259Z,18.72
2023-03-25T16:24:26.554Z,18.67
2023-03-25T16:26:53.718Z,18.38
2023-03-25T16:29:26.327Z,18.72
2023-03-25T16:32:04.142Z,18.56
2023-03-25T16:34:38.044Z,18.70
2023-03-25T16:37:06.508Z,18.74
2023-03-25T16:39:36.700Z,18.68
2023-03-25T16:42:10.203Z,18.61
2023-03-25T16:44:38.230Z,18.45
2023-03-25T16:47:05.879Z,18.47
2023-03-25T16:49:40.369Z,18.31
2023-03-25T16:52:14.481Z,18.09
2023-03-25T16:57:27.706Z,18.18
2023-03-25T16:59:56.267Z,18.15
2023-03-25T17:02:26.836Z,18.02
2023-03-25T17:04:58.088Z,17.96
2023-03-25T17:07:28.322Z,17.80
2023-03-25T17:09:59.088Z,17.84
2023-03-25T17:12:28.856Z,17.55
2023-03-25T17:14:58.625Z,17.46
2023-03-25T17:17:30.546Z,17.26
2023-03-25T17:20:02.802Z,16.78
2023-03-25T17:22:39.856Z,16.84
2023-03-25T17:25:27.550Z,16.83
2023-03-25T17:28:07.141Z,16.70
2023-03-25T17:30:42.959Z,16.62
2023-03-25T17:33:14.476Z,16.36
2023-03-25T17:35:44.528Z,16.53
2023-03-25T17:38:24.281Z,16.62
2023-03-25T17:41:06.602Z,16.03
2023-03-25T17:43:41.589Z,16.19
2023-03-25T17:46:09.645Z,15.93
2023-03-25T17:48:37.011Z,15.96
2023-03-25T17:51:06.275Z,15.92
2023-03-25T17:53:33.228Z,15.68
2023-03-25T17:56:03.509Z,15.84
2023-03-25T17:58:30.878Z,15.85
2023-03-25T18:00:59.128Z,15.60
2023-03-25T18:03:28.329Z,15.32
2023-03-25T18:05:55.620Z,15.27
2023-03-25T18:08:24.432Z,15.19
2023-03-25T18:10:53.416Z,14.97
2023-03-25T18:13:22.137Z,14.94
2023-03-25T18:15:49.347Z,15.01
2023-03-25T18:18:20.642Z,14.80
2023-03-25T18:20:48.422Z,14.80
2023-03-25T18:23:15.858Z,14.87
2023-03-25T18:25:45.091Z,14.79
2023-03-25T18:28:13.583Z,14.76
2023-03-25T18:30:56.649Z,14.84
2023-03-25T18:33:24.201Z,14.53
2023-03-25T18:35:56.583Z,14.64
2023-03-25T18:38:25.460Z,14.12
2023-03-25T18:40:54.696Z,14.14
2023-03-25T18:43:22.801Z,13.55
2023-03-25T18:45:50.316Z,13.71
2023-03-25T18:48:21.183Z,13.64
2023-03-25T18:51:00.138Z,13.58
2023-03-25T18:53:29.334Z,13.77
2023-03-25T18:56:00.254Z,13.75
2023-03-25T18:58:33.193Z,13.75
2023-03-25T19:01:01.841Z,13.77
2023-03-25T19:03:40.658Z,13.69
2023-03-25T19:06:11.559Z,13.74
2023-03-25T19:08:39.315Z,13.56
2023-03-25T19:11:20.069Z,13.79
2023-03-25T19:13:49.190Z,13.63
2023-03-25T19:16:16.786Z,13.84
2023-03-25T19:18:44.017Z,13.57
2023-03-25T19:21:15.410Z,13.78
2023-03-25T19:23:43.201Z,13.56
2023-03-25T19:26:10.377Z,13.91
2023-03-25T19:28:37.389Z,13.81
2023-03-25T19:31:04.815Z,13.94
2023-03-25T19:33:32.199Z,13.86
2023-03-25T19:36:01.998Z,14.04
2023-03-25T19:38:30.282Z,14.03
2023-03-25T19:41:23.541Z,14.15
2023-03-25T19:43:50.562Z,13.79
2023-03-25T19:46:19.415Z,13.81
2023-03-25T19:48:46.763Z,13.93
2023-03-25T19:51:14.046Z,13.55
2023-03-25T19:53:40.998Z,13.44
2023-03-25T19:56:09.870Z,13.83
2023-03-25T19:58:36.804Z,13.02
2023-03-25T20:01:03.878Z,13.69
2023-03-25T20:03:32.909Z,13.35
2023-03-25T20:06:01.690Z,13.02
2023-03-25T20:08:30.232Z,12.18
2023-03-25T20:10:57.148Z,11.72
2023-03-25T20:13:24.526Z,11.74
2023-03-25T20:15:52.817Z,11.31
2023-03-25T20:18:20.728Z,11.92
2023-03-25T20:20:47.703Z,12.17
2023-03-25T20:23:14.627Z,12.27
2023-03-25T20:25:41.908Z,11.95
2023-03-25T20:28:09.131Z,11.46
2023-03-25T20:30:36.300Z,11.17
2023-03-25T20:33:03.639Z,11.07
2023-03-25T20:35:32.000Z,11.27
2023-03-25T20:37:59.318Z,10.92
2023-03-25T20:40:37.357Z,11.20
2023-03-25T20:43:09.200Z,11.32
2023-03-25T20:45:36.269Z,11.85
2023-03-25T20:48:04.132Z,11.72
2023-03-25T20:50:31.054Z,12.18
2023-03-25T20:52:57.951Z,12.61
2023-03-25T20:55:24.985Z,12.22
2023-03-25T20:57:52.169Z,12.48
2023-03-25T21:00:19.781Z,12.73
2023-03-25T21:02:48.057Z,12.79
2023-03-25T21:05:15.081Z,12.91
2023-03-25T21:07:42.159Z,12.75
2023-03-25T21:10:10.509Z,12.96
2023-03-25T21:12:43.839Z,12.71
2023-03-25T21:15:13.493Z,13.00
2023-03-25T21:17:41.149Z,13.13
2023-03-25T21:20:09.345Z,12.90
2023-03-25T21:22:43.286Z,12.77
2023-03-25T21:25:11.784Z,12.98
2023-03-25T21:27:39.853Z,12.96
2023-03-25T21:30:09.903Z,12.85
2023-03-25T21:32:37.179Z,12.87
2023-03-25T21:35:04.211Z,12.80
2023-03-25T21:37:35.871Z,12.83
2023-03-25T21:40:04.050Z,12.57
2023-03-25T21:42:31.189Z,12.85
2023-03-25T21:44:58.449Z,12.80
2023-03-25T21:47:25.630Z,12.87
2023-03-25T21:49:52.531Z,12.72
2023-03-25T21:52:19.499Z,12.62
2023-03-25T21:54:48.634Z,12.59
2023-03-25T21:57:15.618Z,12.59
2023-03-25T21:59:42.634Z,12.54
2023-03-25T22:02:14.481Z,12.55
2023-03-25T22:04:41.761Z,12.54
2023-03-25T22:07:08.870Z,12.06
2023-03-25T22:09:36.177Z,11.54
2023-03-25T22:12:03.202Z,11.78
2023-03-25T22:14:30.133Z,11.89
2023-03-25T22:16:57.109Z,12.02
2023-03-25T22:19:24.681Z,11.91
2023-03-25T22:21:51.692Z,11.87
2023-03-25T22:24:18.705Z,11.51
2023-03-25T22:26:45.636Z,11.65
2023-03-25T22:29:13.719Z,11.62
2023-03-25T22:31:41.333Z,11.41
2023-03-25T22:34:11.266Z,11.36
2023-03-25T22:36:39.811Z,10.94
2023-03-25T22:39:07.249Z,11.42
2023-03-25T22:41:34.523Z,11.49
2023-03-25T22:44:01.646Z,11.58
2023-03-25T22:46:28.703Z,11.49
2023-03-25T22:48:55.821Z,11.55
2023-03-25T22:51:22.758Z,11.16
2023-03-25T22:53:49.751Z,11.05
2023-03-25T22:56:16.740Z,11.01
2023-03-25T22:58:43.743Z,11.21
2023-03-25T23:01:25.252Z,10.00
2023-03-25T23:03:53.921Z,10.55
2023-03-25T23:06:21.717Z,10.73
2023-03-25T23:08:49.158Z,10.84
2023-03-25T23:11:21.987Z,10.98
2023-03-25T23:13:53.323Z,11.03
2023-03-25T23:16:24.334Z,10.92
2023-03-25T23:18:52.257Z,11.21
2023-03-25T23:21:22.047Z,11.11
2023-03-25T23:23:53.287Z,11.02
2023-03-25T23:26:27.665Z,11.13
2023-03-25T23:29:00.758Z,11.09
2023-03-25T23:31:34.247Z,10.93
2023-03-25T23:34:06.954Z,11.04
2023-03-25T23:36:36.673Z,10.93
2023-03-25T23:39:07.524Z,10.92
2023-03-25T23:41:35.224Z,10.97
2023-03-25T23:44:03.196Z,10.94
2023-03-25T23:46:30.370Z,10.75
2023-03-25T23:49:02.782Z,10.69
2023-03-25T23:51:36.799Z,10.65
2023-03-25T23:54:05.378Z,10.61
2023-03-25T23:56:32.590Z,10.46
2023-03-25T23:59:00.743Z,9.90
